Terminal Aerodrome Forecast
Issued by NWS

Home | Current Version | Previous Version | Text Only | Print | Product List | Glossary Off
Versions: 1 2 3 4 5 6 7 8 9 10 11 12

000
FTUS45 KGGW 281700
TAFOLF
TAF
KOLF 281734Z 2818/2918 31010KT P6SM BKN024
     FM281900 31009KT P6SM FEW024
     FM290000 19005KT P6SM SCT200
     FM290600 10004KT P6SM BKN100
     FM291200 14010KT P6SM OVC050=

USA.gov is the U.S. government's official web portal to all federal, state and local government web resources and services.